sensor_id;sensor_type;location;lat;lon;timestamp;P1;durP1;ratioP1;P2;durP2;ratioP2
4460;SDS011;2243;48.812;9.232;2023-03-16T00:02:00;18.17;;;12.20;;
4460;SDS011;2243;48.812;9.232;2023-03-16T00:04:31;16.00;;;11.67;;
4460;SDS011;2243;48.812;9.232;2023-03-16T00:07:08;16.33;;;10.50;;
4460;SDS011;2243;48.812;9.232;2023-03-16T00:09:40;20.70;;;11.83;;
4460;SDS011;2243;48.812;9.232;2023-03-16T00:12:12;16.70;;;11.50;;
4460;SDS011;2243;48.812;9.232;2023-03-16T00:14:47;19.07;;;12.40;;
4460;SDS011;2243;48.812;9.232;2023-03-16T00:17:19;18.07;;;11.30;;
4460;SDS011;2243;48.812;9.232;2023-03-16T00:19:51;12.40;;;9.63;;
4460;SDS011;2243;48.812;9.232;2023-03-16T00:22:26;13.30;;;9.67;;
4460;SDS011;2243;48.812;9.232;2023-03-16T00:24:58;11.83;;;9.50;;
4460;SDS011;2243;48.812;9.232;2023-03-16T00:27:29;15.53;;;10.70;;
4460;SDS011;2243;48.812;9.232;2023-03-16T00:30:01;10.93;;;9.80;;
4460;SDS011;2243;48.812;9.232;2023-03-16T00:32:33;16.20;;;12.13;;
4460;SDS011;2243;48.812;9.232;2023-03-16T00:35:06;14.20;;;10.87;;
4460;SDS011;2243;48.812;9.232;2023-03-16T00:37:39;14.40;;;10.80;;
4460;SDS011;2243;48.812;9.232;2023-03-16T00:40:12;15.73;;;8.97;;
4460;SDS011;2243;48.812;9.232;2023-03-16T00:42:44;14.23;;;10.60;;
4460;SDS011;2243;48.812;9.232;2023-03-16T00:45:15;12.70;;;10.83;;
4460;SDS011;2243;48.812;9.232;2023-03-16T00:47:46;13.60;;;10.13;;
4460;SDS011;2243;48.812;9.232;2023-03-16T00:50:17;14.70;;;10.57;;
4460;SDS011;2243;48.812;9.232;2023-03-16T00:52:51;11.57;;;9.83;;
4460;SDS011;2243;48.812;9.232;2023-03-16T00:55:22;16.80;;;11.50;;
4460;SDS011;2243;48.812;9.232;2023-03-16T00:57:53;14.10;;;10.10;;
4460;SDS011;2243;48.812;9.232;2023-03-16T01:00:24;13.17;;;9.40;;
4460;SDS011;2243;48.812;9.232;2023-03-16T01:02:57;16.20;;;10.33;;
4460;SDS011;2243;48.812;9.232;2023-03-16T01:05:28;12.80;;;10.30;;
4460;SDS011;2243;48.812;9.232;2023-03-16T01:08:02;18.13;;;11.60;;
4460;SDS011;2243;48.812;9.232;2023-03-16T01:10:34;14.70;;;10.50;;
4460;SDS011;2243;48.812;9.232;2023-03-16T01:13:05;16.40;;;11.10;;
4460;SDS011;2243;48.812;9.232;2023-03-16T01:15:36;14.63;;;11.07;;
4460;SDS011;2243;48.812;9.232;2023-03-16T01:18:07;15.00;;;11.60;;
4460;SDS011;2243;48.812;9.232;2023-03-16T01:20:38;17.47;;;11.87;;
4460;SDS011;2243;48.812;9.232;2023-03-16T01:23:10;13.03;;;10.97;;
4460;SDS011;2243;48.812;9.232;2023-03-16T01:25:40;14.47;;;11.00;;
4460;SDS011;2243;48.812;9.232;2023-03-16T01:28:12;13.50;;;10.20;;
4460;SDS011;2243;48.812;9.232;2023-03-16T01:30:43;16.07;;;11.57;;
4460;SDS011;2243;48.812;9.232;2023-03-16T01:33:14;13.77;;;11.03;;
4460;SDS011;2243;48.812;9.232;2023-03-16T01:35:51;12.90;;;10.00;;
4460;SDS011;2243;48.812;9.232;2023-03-16T01:38:31;14.73;;;11.20;;
4460;SDS011;2243;48.812;9.232;2023-03-16T01:41:03;13.37;;;9.40;;
4460;SDS011;2243;48.812;9.232;2023-03-16T01:43:35;13.47;;;9.80;;
4460;SDS011;2243;48.812;9.232;2023-03-16T01:46:19;11.00;;;9.73;;
4460;SDS011;2243;48.812;9.232;2023-03-16T01:57:04;15.00;;;10.57;;
4460;SDS011;2243;48.812;9.232;2023-03-16T01:59:56;17.33;;;10.60;;
4460;SDS011;2243;48.812;9.232;2023-03-16T02:02:51;11.53;;;9.70;;
4460;SDS011;2243;48.812;9.232;2023-03-16T02:05:36;14.40;;;9.43;;
4460;SDS011;2243;48.812;9.232;2023-03-16T02:08:12;12.50;;;9.87;;
4460;SDS011;2243;48.812;9.232;2023-03-16T02:10:43;13.93;;;10.57;;
4460;SDS011;2243;48.812;9.232;2023-03-16T02:13:15;14.30;;;9.83;;
4460;SDS011;2243;48.812;9.232;2023-03-16T02:15:46;13.07;;;10.30;;
4460;SDS011;2243;48.812;9.232;2023-03-16T02:18:17;11.77;;;9.40;;
4460;SDS011;2243;48.812;9.232;2023-03-16T02:23:34;11.77;;;10.30;;
4460;SDS011;2243;48.812;9.232;2023-03-16T02:32:29;12.37;;;8.67;;
4460;SDS011;2243;48.812;9.232;2023-03-16T02:35:01;13.73;;;9.40;;
4460;SDS011;2243;48.812;9.232;2023-03-16T02:37:34;11.33;;;9.47;;
4460;SDS011;2243;48.812;9.232;2023-03-16T02:42:57;10.13;;;8.33;;
4460;SDS011;2243;48.812;9.232;2023-03-16T02:45:44;14.83;;;9.23;;
4460;SDS011;2243;48.812;9.232;2023-03-16T02:48:31;13.70;;;9.23;;
4460;SDS011;2243;48.812;9.232;2023-03-16T02:51:19;16.10;;;9.30;;
4460;SDS011;2243;48.812;9.232;2023-03-16T02:53:49;16.80;;;10.33;;
4460;SDS011;2243;48.812;9.232;2023-03-16T02:56:21;12.90;;;9.77;;
4460;SDS011;2243;48.812;9.232;2023-03-16T02:58:52;9.70;;;8.60;;
4460;SDS011;2243;48.812;9.232;2023-03-16T03:01:24;9.50;;;8.17;;
4460;SDS011;2243;48.812;9.232;2023-03-16T03:03:54;12.00;;;8.73;;
4460;SDS011;2243;48.812;9.232;2023-03-16T03:06:26;13.57;;;9.77;;
4460;SDS011;2243;48.812;9.232;2023-03-16T03:08:57;12.50;;;8.90;;
4460;SDS011;2243;48.812;9.232;2023-03-16T03:11:29;10.10;;;8.97;;
4460;SDS011;2243;48.812;9.232;2023-03-16T03:14:00;11.97;;;8.70;;
4460;SDS011;2243;48.812;9.232;2023-03-16T03:16:31;9.20;;;8.03;;
4460;SDS011;2243;48.812;9.232;2023-03-16T03:19:02;12.43;;;8.87;;
4460;SDS011;2243;48.812;9.232;2023-03-16T03:21:33;10.43;;;9.17;;
4460;SDS011;2243;48.812;9.232;2023-03-16T03:24:04;12.30;;;8.67;;
4460;SDS011;2243;48.812;9.232;2023-03-16T03:26:37;11.30;;;9.30;;
4460;SDS011;2243;48.812;9.232;2023-03-16T03:29:08;9.70;;;8.40;;
4460;SDS011;2243;48.812;9.232;2023-03-16T03:31:39;13.03;;;9.90;;
4460;SDS011;2243;48.812;9.232;2023-03-16T03:34:10;14.87;;;10.00;;
4460;SDS011;2243;48.812;9.232;2023-03-16T03:36:41;11.33;;;8.23;;
4460;SDS011;2243;48.812;9.232;2023-03-16T03:39:12;10.50;;;8.83;;
4460;SDS011;2243;48.812;9.232;2023-03-16T03:41:42;12.43;;;8.50;;
4460;SDS011;2243;48.812;9.232;2023-03-16T03:44:13;13.33;;;9.57;;
4460;SDS011;2243;48.812;9.232;2023-03-16T03:46:44;12.27;;;8.80;;
4460;SDS011;2243;48.812;9.232;2023-03-16T03:49:16;12.17;;;9.30;;
4460;SDS011;2243;48.812;9.232;2023-03-16T03:51:47;11.83;;;8.97;;
4460;SDS011;2243;48.812;9.232;2023-03-16T03:54:18;11.00;;;9.30;;
4460;SDS011;2243;48.812;9.232;2023-03-16T03:56:49;10.37;;;9.00;;
4460;SDS011;2243;48.812;9.232;2023-03-16T03:59:21;12.33;;;9.37;;
4460;SDS011;2243;48.812;9.232;2023-03-16T04:01:52;10.30;;;8.00;;
4460;SDS011;2243;48.812;9.232;2023-03-16T04:04:23;15.70;;;10.10;;
4460;SDS011;2243;48.812;9.232;2023-03-16T04:06:54;10.40;;;8.10;;
4460;SDS011;2243;48.812;9.232;2023-03-16T04:09:25;10.90;;;8.97;;
4460;SDS011;2243;48.812;9.232;2023-03-16T04:11:56;12.63;;;9.17;;
4460;SDS011;2243;48.812;9.232;2023-03-16T04:14:27;13.13;;;9.97;;
4460;SDS011;2243;48.812;9.232;2023-03-16T04:16:59;14.60;;;9.80;;
4460;SDS011;2243;48.812;9.232;2023-03-16T04:19:30;11.30;;;9.20;;
4460;SDS011;2243;48.812;9.232;2023-03-16T04:22:01;10.97;;;8.93;;
4460;SDS011;2243;48.812;9.232;2023-03-16T04:24:32;14.80;;;9.10;;
4460;SDS011;2243;48.812;9.232;2023-03-16T04:27:03;11.80;;;8.83;;
4460;SDS011;2243;48.812;9.232;2023-03-16T04:29:34;11.03;;;8.83;;
4460;SDS011;2243;48.812;9.232;2023-03-16T04:32:06;10.10;;;8.90;;
4460;SDS011;2243;48.812;9.232;2023-03-16T04:34:37;11.13;;;8.67;;
4460;SDS011;2243;48.812;9.232;2023-03-16T04:37:10;11.03;;;9.30;;
4460;SDS011;2243;48.812;9.232;2023-03-16T04:39:42;12.80;;;9.27;;
4460;SDS011;2243;48.812;9.232;2023-03-16T04:42:13;13.10;;;9.90;;
4460;SDS011;2243;48.812;9.232;2023-03-16T04:44:44;11.23;;;8.80;;
4460;SDS011;2243;48.812;9.232;2023-03-16T04:47:15;13.43;;;9.97;;
4460;SDS011;2243;48.812;9.232;2023-03-16T04:49:47;14.03;;;10.10;;
4460;SDS011;2243;48.812;9.232;2023-03-16T04:52:18;15.30;;;9.80;;
4460;SDS011;2243;48.812;9.232;2023-03-16T04:54:48;12.97;;;9.13;;
4460;SDS011;2243;48.812;9.232;2023-03-16T04:57:20;10.83;;;8.60;;
4460;SDS011;2243;48.812;9.232;2023-03-16T04:59:52;13.83;;;9.40;;
4460;SDS011;2243;48.812;9.232;2023-03-16T05:02:23;12.03;;;9.50;;
4460;SDS011;2243;48.812;9.232;2023-03-16T05:04:54;13.70;;;9.77;;
4460;SDS011;2243;48.812;9.232;2023-03-16T05:07:25;14.43;;;9.47;;
4460;SDS011;2243;48.812;9.232;2023-03-16T05:09:56;22.63;;;10.37;;
4460;SDS011;2243;48.812;9.232;2023-03-16T05:12:27;12.07;;;9.47;;
4460;SDS011;2243;48.812;9.232;2023-03-16T05:14:57;12.97;;;10.03;;
4460;SDS011;2243;48.812;9.232;2023-03-16T05:17:28;13.87;;;9.37;;
4460;SDS011;2243;48.812;9.232;2023-03-16T05:19:59;14.27;;;9.53;;
4460;SDS011;2243;48.812;9.232;2023-03-16T05:22:30;13.20;;;9.23;;
4460;SDS011;2243;48.812;9.232;2023-03-16T05:25:01;13.83;;;11.40;;
4460;SDS011;2243;48.812;9.232;2023-03-16T05:27:34;16.20;;;10.13;;
4460;SDS011;2243;48.812;9.232;2023-03-16T05:30:05;18.00;;;11.00;;
4460;SDS011;2243;48.812;9.232;2023-03-16T05:32:39;14.60;;;10.63;;
4460;SDS011;2243;48.812;9.232;2023-03-16T05:35:10;15.20;;;10.07;;
4460;SDS011;2243;48.812;9.232;2023-03-16T05:37:42;14.97;;;9.40;;
4460;SDS011;2243;48.812;9.232;2023-03-16T05:40:14;12.43;;;9.80;;
4460;SDS011;2243;48.812;9.232;2023-03-16T05:42:49;15.00;;;10.03;;
4460;SDS011;2243;48.812;9.232;2023-03-16T05:45:25;19.43;;;10.97;;
4460;SDS011;2243;48.812;9.232;2023-03-16T05:47:56;12.03;;;9.23;;
4460;SDS011;2243;48.812;9.232;2023-03-16T05:50:27;11.17;;;8.90;;
4460;SDS011;2243;48.812;9.232;2023-03-16T05:52:59;13.07;;;9.37;;
4460;SDS011;2243;48.812;9.232;2023-03-16T05:55:29;16.20;;;10.20;;
4460;SDS011;2243;48.812;9.232;2023-03-16T05:58:01;15.60;;;10.27;;
4460;SDS011;2243;48.812;9.232;2023-03-16T06:00:34;13.73;;;9.90;;
4460;SDS011;2243;48.812;9.232;2023-03-16T06:03:08;12.77;;;9.73;;
4460;SDS011;2243;48.812;9.232;2023-03-16T06:05:39;14.43;;;10.00;;
4460;SDS011;2243;48.812;9.232;2023-03-16T06:08:10;14.73;;;9.40;;
4460;SDS011;2243;48.812;9.232;2023-03-16T06:10:42;14.63;;;9.47;;
4460;SDS011;2243;48.812;9.232;2023-03-16T06:13:13;17.20;;;10.40;;
4460;SDS011;2243;48.812;9.232;2023-03-16T06:15:44;13.30;;;9.87;;
4460;SDS011;2243;48.812;9.232;2023-03-16T06:18:14;14.90;;;9.70;;
4460;SDS011;2243;48.812;9.232;2023-03-16T06:20:45;13.90;;;11.30;;
4460;SDS011;2243;48.812;9.232;2023-03-16T06:23:16;16.90;;;11.53;;
4460;SDS011;2243;48.812;9.232;2023-03-16T06:25:49;13.83;;;10.13;;
4460;SDS011;2243;48.812;9.232;2023-03-16T06:28:21;14.50;;;10.80;;
4460;SDS011;2243;48.812;9.232;2023-03-16T06:30:53;16.60;;;10.73;;
4460;SDS011;2243;48.812;9.232;2023-03-16T06:33:25;15.30;;;11.33;;
4460;SDS011;2243;48.812;9.232;2023-03-16T06:35:57;16.90;;;10.37;;
4460;SDS011;2243;48.812;9.232;2023-03-16T06:38:29;14.80;;;10.40;;
4460;SDS011;2243;48.812;9.232;2023-03-16T06:41:00;17.07;;;11.60;;
4460;SDS011;2243;48.812;9.232;2023-03-16T06:43:31;18.00;;;11.37;;
4460;SDS011;2243;48.812;9.232;2023-03-16T06:46:02;18.23;;;11.13;;
4460;SDS011;2243;48.812;9.232;2023-03-16T06:48:33;22.30;;;12.03;;
4460;SDS011;2243;48.812;9.232;2023-03-16T06:51:04;19.63;;;12.87;;
4460;SDS011;2243;48.812;9.232;2023-03-16T06:53:36;22.83;;;13.37;;
4460;SDS011;2243;48.812;9.232;2023-03-16T06:56:07;15.87;;;12.10;;
4460;SDS011;2243;48.812;9.232;2023-03-16T06:58:38;20.43;;;12.27;;
4460;SDS011;2243;48.812;9.232;2023-03-16T07:01:09;24.97;;;13.50;;
4460;SDS011;2243;48.812;9.232;2023-03-16T07:03:41;22.53;;;14.13;;
4460;SDS011;2243;48.812;9.232;2023-03-16T07:06:12;21.53;;;13.07;;
4460;SDS011;2243;48.812;9.232;2023-03-16T07:08:43;22.67;;;14.20;;
4460;SDS011;2243;48.812;9.232;2023-03-16T07:11:14;21.37;;;13.37;;
4460;SDS011;2243;48.812;9.232;2023-03-16T07:13:45;25.23;;;15.43;;
4460;SDS011;2243;48.812;9.232;2023-03-16T07:16:16;24.73;;;13.77;;
4460;SDS011;2243;48.812;9.232;2023-03-16T07:18:47;22.00;;;13.80;;
4460;SDS011;2243;48.812;9.232;2023-03-16T07:21:18;21.53;;;13.40;;
4460;SDS011;2243;48.812;9.232;2023-03-16T07:23:50;25.03;;;15.07;;
4460;SDS011;2243;48.812;9.232;2023-03-16T07:26:21;20.83;;;13.53;;
4460;SDS011;2243;48.812;9.232;2023-03-16T07:28:52;19.67;;;12.67;;
4460;SDS011;2243;48.812;9.232;2023-03-16T07:31:27;20.87;;;13.10;;
4460;SDS011;2243;48.812;9.232;2023-03-16T07:33:58;20.83;;;13.10;;
4460;SDS011;2243;48.812;9.232;2023-03-16T07:36:29;22.20;;;13.70;;
4460;SDS011;2243;48.812;9.232;2023-03-16T07:39:00;19.80;;;12.47;;
4460;SDS011;2243;48.812;9.232;2023-03-16T07:41:32;24.50;;;13.03;;
4460;SDS011;2243;48.812;9.232;2023-03-16T07:44:03;19.47;;;12.43;;
4460;SDS011;2243;48.812;9.232;2023-03-16T07:46:34;22.00;;;13.70;;
4460;SDS011;2243;48.812;9.232;2023-03-16T07:49:06;21.27;;;13.50;;
4460;SDS011;2243;48.812;9.232;2023-03-16T07:51:38;18.40;;;12.50;;
4460;SDS011;2243;48.812;9.232;2023-03-16T07:54:10;19.27;;;12.60;;
4460;SDS011;2243;48.812;9.232;2023-03-16T07:56:41;21.13;;;13.03;;
4460;SDS011;2243;48.812;9.232;2023-03-16T07:59:18;19.53;;;13.50;;
4460;SDS011;2243;48.812;9.232;2023-03-16T08:01:50;23.07;;;14.60;;
4460;SDS011;2243;48.812;9.232;2023-03-16T08:04:21;25.80;;;14.43;;
4460;SDS011;2243;48.812;9.232;2023-03-16T08:06:52;19.60;;;12.50;;
4460;SDS011;2243;48.812;9.232;2023-03-16T08:09:29;17.70;;;12.40;;
4460;SDS011;2243;48.812;9.232;2023-03-16T08:12:00;18.60;;;12.17;;
4460;SDS011;2243;48.812;9.232;2023-03-16T08:14:36;17.10;;;10.63;;
4460;SDS011;2243;48.812;9.232;2023-03-16T08:17:07;18.93;;;13.47;;
4460;SDS011;2243;48.812;9.232;2023-03-16T08:19:38;13.50;;;10.27;;
4460;SDS011;2243;48.812;9.232;2023-03-16T08:22:09;16.20;;;11.43;;
4460;SDS011;2243;48.812;9.232;2023-03-16T08:24:41;15.37;;;10.30;;
4460;SDS011;2243;48.812;9.232;2023-03-16T08:27:12;16.50;;;10.10;;
4460;SDS011;2243;48.812;9.232;2023-03-16T08:29:45;14.00;;;9.50;;
4460;SDS011;2243;48.812;9.232;2023-03-16T08:32:16;13.73;;;9.90;;
4460;SDS011;2243;48.812;9.232;2023-03-16T08:34:47;10.83;;;8.50;;
4460;SDS011;2243;48.812;9.232;2023-03-16T08:37:19;12.73;;;8.63;;
4460;SDS011;2243;48.812;9.232;2023-03-16T08:39:51;13.00;;;8.77;;
4460;SDS011;2243;48.812;9.232;2023-03-16T08:42:23;11.00;;;7.53;;
4460;SDS011;2243;48.812;9.232;2023-03-16T08:44:54;15.50;;;8.20;;
4460;SDS011;2243;48.812;9.232;2023-03-16T08:47:25;10.70;;;6.13;;
4460;SDS011;2243;48.812;9.232;2023-03-16T08:49:56;10.73;;;8.00;;
4460;SDS011;2243;48.812;9.232;2023-03-16T08:52:27;8.10;;;6.80;;
4460;SDS011;2243;48.812;9.232;2023-03-16T08:54:59;11.50;;;7.77;;
4460;SDS011;2243;48.812;9.232;2023-03-16T08:57:33;10.27;;;7.93;;
4460;SDS011;2243;48.812;9.232;2023-03-16T09:00:05;8.70;;;6.43;;
4460;SDS011;2243;48.812;9.232;2023-03-16T09:02:43;8.77;;;7.30;;
4460;SDS011;2243;48.812;9.232;2023-03-16T09:05:14;7.80;;;6.43;;
4460;SDS011;2243;48.812;9.232;2023-03-16T09:07:47;10.30;;;7.90;;
4460;SDS011;2243;48.812;9.232;2023-03-16T09:10:19;9.73;;;7.83;;
4460;SDS011;2243;48.812;9.232;2023-03-16T09:12:52;18.73;;;7.27;;
4460;SDS011;2243;48.812;9.232;2023-03-16T09:15:23;7.57;;;6.43;;
4460;SDS011;2243;48.812;9.232;2023-03-16T09:17:54;7.73;;;7.00;;
4460;SDS011;2243;48.812;9.232;2023-03-16T09:20:27;6.87;;;6.17;;
4460;SDS011;2243;48.812;9.232;2023-03-16T09:23:02;8.20;;;6.30;;
4460;SDS011;2243;48.812;9.232;2023-03-16T09:25:33;8.30;;;7.10;;
4460;SDS011;2243;48.812;9.232;2023-03-16T09:28:04;6.37;;;5.60;;
4460;SDS011;2243;48.812;9.232;2023-03-16T09:30:36;12.17;;;7.47;;
4460;SDS011;2243;48.812;9.232;2023-03-16T09:33:07;7.10;;;6.07;;
4460;SDS011;2243;48.812;9.232;2023-03-16T09:35:38;9.30;;;6.00;;
4460;SDS011;2243;48.812;9.232;2023-03-16T09:38:09;8.53;;;5.80;;
4460;SDS011;2243;48.812;9.232;2023-03-16T09:40:40;8.63;;;6.10;;
4460;SDS011;2243;48.812;9.232;2023-03-16T09:45:52;8.23;;;6.30;;
4460;SDS011;2243;48.812;9.232;2023-03-16T09:48:36;6.43;;;5.83;;
4460;SDS011;2243;48.812;9.232;2023-03-16T09:51:19;7.73;;;5.60;;
4460;SDS011;2243;48.812;9.232;2023-03-16T09:53:57;7.70;;;6.67;;
4460;SDS011;2243;48.812;9.232;2023-03-16T09:56:36;10.63;;;6.50;;
4460;SDS011;2243;48.812;9.232;2023-03-16T09:59:12;9.07;;;6.17;;
4460;SDS011;2243;48.812;9.232;2023-03-16T10:09:42;10.73;;;6.43;;
4460;SDS011;2243;48.812;9.232;2023-03-16T10:12:42;7.53;;;5.90;;
4460;SDS011;2243;48.812;9.232;2023-03-16T10:15:21;7.10;;;5.70;;
4460;SDS011;2243;48.812;9.232;2023-03-16T10:18:00;8.43;;;5.00;;
4460;SDS011;2243;48.812;9.232;2023-03-16T10:20:43;5.43;;;4.97;;
4460;SDS011;2243;48.812;9.232;2023-03-16T10:23:19;5.00;;;4.60;;
4460;SDS011;2243;48.812;9.232;2023-03-16T10:25:54;4.60;;;4.30;;
4460;SDS011;2243;48.812;9.232;2023-03-16T10:28:27;6.10;;;4.40;;
4460;SDS011;2243;48.812;9.232;2023-03-16T10:31:01;4.80;;;4.40;;
4460;SDS011;2243;48.812;9.232;2023-03-16T10:33:34;8.47;;;5.37;;
4460;SDS011;2243;48.812;9.232;2023-03-16T10:39:03;5.53;;;4.13;;
4460;SDS011;2243;48.812;9.232;2023-03-16T10:41:38;4.57;;;4.27;;
4460;SDS011;2243;48.812;9.232;2023-03-16T10:44:25;7.03;;;4.70;;
4460;SDS011;2243;48.812;9.232;2023-03-16T10:47:01;4.63;;;4.23;;
4460;SDS011;2243;48.812;9.232;2023-03-16T10:49:36;7.27;;;4.83;;
4460;SDS011;2243;48.812;9.232;2023-03-16T10:54:47;5.60;;;4.73;;
4460;SDS011;2243;48.812;9.232;2023-03-16T10:57:29;4.13;;;3.87;;
4460;SDS011;2243;48.812;9.232;2023-03-16T11:02:50;10.63;;;4.50;;
4460;SDS011;2243;48.812;9.232;2023-03-16T11:05:24;3.60;;;3.30;;
4460;SDS011;2243;48.812;9.232;2023-03-16T11:08:10;3.73;;;3.33;;
4460;SDS011;2243;48.812;9.232;2023-03-16T11:10:46;3.87;;;3.10;;
4460;SDS011;2243;48.812;9.232;2023-03-16T11:13:32;4.47;;;3.90;;
4460;SDS011;2243;48.812;9.232;2023-03-16T11:25:01;6.80;;;3.03;;
4460;SDS011;2243;48.812;9.232;2023-03-16T11:30:37;3.67;;;3.37;;
4460;SDS011;2243;48.812;9.232;2023-03-16T11:33:14;4.37;;;3.33;;
4460;SDS011;2243;48.812;9.232;2023-03-16T11:38:50;3.60;;;3.30;;
4460;SDS011;2243;48.812;9.232;2023-03-16T11:44:53;3.43;;;2.60;;
4460;SDS011;2243;48.812;9.232;2023-03-16T11:47:41;3.23;;;3.03;;
4460;SDS011;2243;48.812;9.232;2023-03-16T11:50:47;2.80;;;2.57;;
4460;SDS011;2243;48.812;9.232;2023-03-16T11:56:54;3.10;;;2.90;;
4460;SDS011;2243;48.812;9.232;2023-03-16T12:06:07;2.97;;;2.73;;
4460;SDS011;2243;48.812;9.232;2023-03-16T12:09:25;3.07;;;2.53;;
4460;SDS011;2243;48.812;9.232;2023-03-16T12:12:26;3.30;;;3.10;;
4460;SDS011;2243;48.812;9.232;2023-03-16T12:18:21;3.33;;;2.33;;
4460;SDS011;2243;48.812;9.232;2023-03-16T12:21:04;2.73;;;2.53;;
4460;SDS011;2243;48.812;9.232;2023-03-16T12:23:53;3.17;;;2.97;;
4460;SDS011;2243;48.812;9.232;2023-03-16T12:26:29;4.23;;;2.80;;
4460;SDS011;2243;48.812;9.232;2023-03-16T12:29:11;3.13;;;2.90;;
4460;SDS011;2243;48.812;9.232;2023-03-16T12:32:17;3.03;;;2.47;;
4460;SDS011;2243;48.812;9.232;2023-03-16T12:49:32;2.80;;;2.60;;
4460;SDS011;2243;48.812;9.232;2023-03-16T12:52:07;2.80;;;2.60;;
4460;SDS011;2243;48.812;9.232;2023-03-16T12:54:48;3.40;;;2.70;;
4460;SDS011;2243;48.812;9.232;2023-03-16T12:57:24;3.73;;;3.17;;
4460;SDS011;2243;48.812;9.232;2023-03-16T12:59:56;2.83;;;2.60;;
4460;SDS011;2243;48.812;9.232;2023-03-16T13:02:30;6.90;;;3.30;;
4460;SDS011;2243;48.812;9.232;2023-03-16T13:05:14;5.33;;;2.70;;
4460;SDS011;2243;48.812;9.232;2023-03-16T13:07:49;3.40;;;2.97;;
4460;SDS011;2243;48.812;9.232;2023-03-16T13:10:21;6.43;;;3.20;;
4460;SDS011;2243;48.812;9.232;2023-03-16T13:12:53;6.30;;;3.20;;
4460;SDS011;2243;48.812;9.232;2023-03-16T13:15:26;5.27;;;3.03;;
4460;SDS011;2243;48.812;9.232;2023-03-16T13:18:19;3.03;;;2.73;;
4460;SDS011;2243;48.812;9.232;2023-03-16T13:20:54;3.87;;;3.57;;
4460;SDS011;2243;48.812;9.232;2023-03-16T13:23:28;3.50;;;3.20;;
4460;SDS011;2243;48.812;9.232;2023-03-16T13:26:57;3.00;;;2.70;;
4460;SDS011;2243;48.812;9.232;2023-03-16T13:29:35;6.60;;;3.20;;
4460;SDS011;2243;48.812;9.232;2023-03-16T13:32:09;3.17;;;2.60;;
4460;SDS011;2243;48.812;9.232;2023-03-16T13:34:49;3.60;;;3.27;;
4460;SDS011;2243;48.812;9.232;2023-03-16T13:37:22;3.10;;;2.53;;
4460;SDS011;2243;48.812;9.232;2023-03-16T13:39:58;3.10;;;2.73;;
4460;SDS011;2243;48.812;9.232;2023-03-16T13:42:33;3.60;;;3.30;;
4460;SDS011;2243;48.812;9.232;2023-03-16T13:45:11;3.93;;;2.73;;
4460;SDS011;2243;48.812;9.232;2023-03-16T13:47:45;2.50;;;2.30;;
4460;SDS011;2243;48.812;9.232;2023-03-16T13:50:17;3.30;;;2.97;;
4460;SDS011;2243;48.812;9.232;2023-03-16T13:53:00;2.93;;;2.63;;
4460;SDS011;2243;48.812;9.232;2023-03-16T13:55:34;2.90;;;2.60;;
4460;SDS011;2243;48.812;9.232;2023-03-16T13:58:29;2.83;;;2.50;;
4460;SDS011;2243;48.812;9.232;2023-03-16T14:01:04;2.97;;;2.77;;
4460;SDS011;2243;48.812;9.232;2023-03-16T14:04:02;3.30;;;3.00;;
4460;SDS011;2243;48.812;9.232;2023-03-16T14:06:50;2.97;;;2.77;;
4460;SDS011;2243;48.812;9.232;2023-03-16T14:09:33;2.90;;;2.20;;
4460;SDS011;2243;48.812;9.232;2023-03-16T14:12:05;2.80;;;2.60;;
4460;SDS011;2243;48.812;9.232;2023-03-16T14:14:37;3.50;;;2.60;;
4460;SDS011;2243;48.812;9.232;2023-03-16T14:17:11;2.47;;;2.37;;
4460;SDS011;2243;48.812;9.232;2023-03-16T14:22:22;4.50;;;3.20;;
4460;SDS011;2243;48.812;9.232;2023-03-16T14:25:09;4.23;;;2.63;;
4460;SDS011;2243;48.812;9.232;2023-03-16T14:27:58;4.03;;;2.87;;
4460;SDS011;2243;48.812;9.232;2023-03-16T14:30:35;2.47;;;2.37;;
4460;SDS011;2243;48.812;9.232;2023-03-16T14:33:20;2.67;;;2.57;;
4460;SDS011;2243;48.812;9.232;2023-03-16T14:36:05;5.53;;;2.80;;
4460;SDS011;2243;48.812;9.232;2023-03-16T14:38:44;3.13;;;2.83;;
4460;SDS011;2243;48.812;9.232;2023-03-16T14:41:25;3.30;;;3.10;;
4460;SDS011;2243;48.812;9.232;2023-03-16T14:43:59;5.90;;;3.43;;
4460;SDS011;2243;48.812;9.232;2023-03-16T14:46:36;3.20;;;2.87;;
4460;SDS011;2243;48.812;9.232;2023-03-16T14:49:21;4.63;;;3.00;;
4460;SDS011;2243;48.812;9.232;2023-03-16T14:54:41;3.40;;;3.10;;
4460;SDS011;2243;48.812;9.232;2023-03-16T14:57:12;2.80;;;2.60;;
4460;SDS011;2243;48.812;9.232;2023-03-16T14:59:46;2.90;;;2.63;;
4460;SDS011;2243;48.812;9.232;2023-03-16T15:02:18;3.83;;;3.53;;
4460;SDS011;2243;48.812;9.232;2023-03-16T15:04:59;2.83;;;2.67;;
4460;SDS011;2243;48.812;9.232;2023-03-16T15:07:38;3.50;;;3.17;;
4460;SDS011;2243;48.812;9.232;2023-03-16T15:10:16;2.70;;;2.50;;
4460;SDS011;2243;48.812;9.232;2023-03-16T15:12:52;3.50;;;3.20;;
4460;SDS011;2243;48.812;9.232;2023-03-16T15:15:23;3.37;;;3.17;;
4460;SDS011;2243;48.812;9.232;2023-03-16T15:17:56;4.27;;;3.23;;
4460;SDS011;2243;48.812;9.232;2023-03-16T15:20:29;3.27;;;2.97;;
4460;SDS011;2243;48.812;9.232;2023-03-16T15:23:05;3.53;;;3.23;;
4460;SDS011;2243;48.812;9.232;2023-03-16T15:25:41;4.10;;;3.40;;
4460;SDS011;2243;48.812;9.232;2023-03-16T15:28:18;4.70;;;2.90;;
4460;SDS011;2243;48.812;9.232;2023-03-16T15:30:52;5.40;;;2.90;;
4460;SDS011;2243;48.812;9.232;2023-03-16T15:33:26;4.83;;;2.87;;
4460;SDS011;2243;48.812;9.232;2023-03-16T15:35:58;3.20;;;3.00;;
4460;SDS011;2243;48.812;9.232;2023-03-16T15:38:33;3.10;;;2.80;;
4460;SDS011;2243;48.812;9.232;2023-03-16T15:41:09;6.00;;;3.60;;
4460;SDS011;2243;48.812;9.232;2023-03-16T15:43:41;5.30;;;3.77;;
4460;SDS011;2243;48.812;9.232;2023-03-16T15:46:14;3.43;;;3.13;;
4460;SDS011;2243;48.812;9.232;2023-03-16T15:48:45;2.83;;;2.63;;
4460;SDS011;2243;48.812;9.232;2023-03-16T15:51:26;3.73;;;3.30;;
4460;SDS011;2243;48.812;9.232;2023-03-16T15:54:00;4.80;;;3.20;;
4460;SDS011;2243;48.812;9.232;2023-03-16T15:56:35;3.93;;;3.00;;
4460;SDS011;2243;48.812;9.232;2023-03-16T15:59:23;4.03;;;2.97;;
4460;SDS011;2243;48.812;9.232;2023-03-16T16:01:56;3.43;;;3.17;;
4460;SDS011;2243;48.812;9.232;2023-03-16T16:04:27;3.30;;;2.80;;
4460;SDS011;2243;48.812;9.232;2023-03-16T16:06:58;3.13;;;2.83;;
4460;SDS011;2243;48.812;9.232;2023-03-16T16:09:31;4.20;;;3.23;;
4460;SDS011;2243;48.812;9.232;2023-03-16T16:12:09;3.53;;;3.10;;
4460;SDS011;2243;48.812;9.232;2023-03-16T16:14:43;3.67;;;3.37;;
4460;SDS011;2243;48.812;9.232;2023-03-16T16:17:14;3.60;;;3.40;;
4460;SDS011;2243;48.812;9.232;2023-03-16T16:19:56;3.70;;;3.40;;
4460;SDS011;2243;48.812;9.232;2023-03-16T16:22:27;4.73;;;3.00;;
4460;SDS011;2243;48.812;9.232;2023-03-16T16:24:58;3.47;;;3.17;;
4460;SDS011;2243;48.812;9.232;2023-03-16T16:27:29;3.83;;;2.23;;
4460;SDS011;2243;48.812;9.232;2023-03-16T16:30:00;2.63;;;2.43;;
4460;SDS011;2243;48.812;9.232;2023-03-16T16:32:30;3.73;;;2.70;;
4460;SDS011;2243;48.812;9.232;2023-03-16T16:35:01;4.17;;;2.33;;
4460;SDS011;2243;48.812;9.232;2023-03-16T16:37:35;5.03;;;2.40;;
4460;SDS011;2243;48.812;9.232;2023-03-16T16:40:06;2.70;;;2.50;;
4460;SDS011;2243;48.812;9.232;2023-03-16T16:42:39;2.53;;;2.30;;
4460;SDS011;2243;48.812;9.232;2023-03-16T16:45:14;2.30;;;2.20;;
4460;SDS011;2243;48.812;9.232;2023-03-16T16:47:54;3.17;;;2.87;;
4460;SDS011;2243;48.812;9.232;2023-03-16T16:50:26;2.90;;;2.70;;
4460;SDS011;2243;48.812;9.232;2023-03-16T16:52:57;3.17;;;2.80;;
4460;SDS011;2243;48.812;9.232;2023-03-16T16:55:28;3.87;;;3.50;;
4460;SDS011;2243;48.812;9.232;2023-03-16T16:57:59;3.87;;;2.90;;
4460;SDS011;2243;48.812;9.232;2023-03-16T17:00:35;3.23;;;2.90;;
4460;SDS011;2243;48.812;9.232;2023-03-16T17:03:42;4.07;;;2.87;;
4460;SDS011;2243;48.812;9.232;2023-03-16T17:06:08;3.40;;;3.10;;
4460;SDS011;2243;48.812;9.232;2023-03-16T17:08:46;3.50;;;2.93;;
4460;SDS011;2243;48.812;9.232;2023-03-16T17:11:26;3.77;;;3.07;;
4460;SDS011;2243;48.812;9.232;2023-03-16T17:14:00;3.10;;;2.80;;
4460;SDS011;2243;48.812;9.232;2023-03-16T17:16:34;4.50;;;3.40;;
4460;SDS011;2243;48.812;9.232;2023-03-16T17:19:29;3.20;;;2.97;;